sensor_id;sensor_type;location;lat;lon;timestamp;pressure;altitude;pressure_sealevel;temperature;humidity
7918;BME280;4004;42.624;23.386;2023-02-11T00:00:41;95759.16;;;-4.42;76.57
7918;BME280;4004;42.624;23.386;2023-02-11T00:03:08;95762.78;;;-4.43;77.32
7918;BME280;4004;42.624;23.386;2023-02-11T00:05:35;95755.19;;;-4.51;77.51
7918;BME280;4004;42.624;23.386;2023-02-11T00:08:02;95752.72;;;-4.46;77.98
7918;BME280;4004;42.624;23.386;2023-02-11T00:10:28;95760.66;;;-4.34;78.40
7918;BME280;4004;42.624;23.386;2023-02-11T00:12:55;95757.66;;;-4.20;79.08
7918;BME280;4004;42.624;23.386;2023-02-11T00:15:23;95764.16;;;-4.22;78.29
7918;BME280;4004;42.624;23.386;2023-02-11T00:17:50;95758.16;;;-4.29;78.01
7918;BME280;4004;42.624;23.386;2023-02-11T00:20:17;95754.88;;;-4.25;78.39
7918;BME280;4004;42.624;23.386;2023-02-11T00:22:43;95759.00;;;-4.29;78.70
7918;BME280;4004;42.624;23.386;2023-02-11T00:25:10;95758.25;;;-4.18;79.20
7918;BME280;4004;42.624;23.386;2023-02-11T00:27:37;95758.31;;;-4.24;78.88
7918;BME280;4004;42.624;23.386;2023-02-11T00:30:04;95748.75;;;-4.19;79.29
7918;BME280;4004;42.624;23.386;2023-02-11T00:32:32;95754.56;;;-4.17;79.21
7918;BME280;4004;42.624;23.386;2023-02-11T00:34:59;95749.25;;;-4.10;79.01
7918;BME280;4004;42.624;23.386;2023-02-11T00:37:26;95749.38;;;-4.05;78.42
7918;BME280;4004;42.624;23.386;2023-02-11T00:39:53;95756.88;;;-4.20;77.49
7918;BME280;4004;42.624;23.386;2023-02-11T00:42:20;95757.81;;;-4.33;77.44
7918;BME280;4004;42.624;23.386;2023-02-11T00:44:46;95749.94;;;-4.33;77.94
7918;BME280;4004;42.624;23.386;2023-02-11T00:47:13;95753.94;;;-4.30;78.30
7918;BME280;4004;42.624;23.386;2023-02-11T00:49:41;95740.53;;;-4.41;78.13
7918;BME280;4004;42.624;23.386;2023-02-11T00:52:08;95744.19;;;-4.42;78.75
7918;BME280;4004;42.624;23.386;2023-02-11T00:54:34;95749.31;;;-4.47;78.54
7918;BME280;4004;42.624;23.386;2023-02-11T00:57:01;95745.88;;;-4.47;78.36
7918;BME280;4004;42.624;23.386;2023-02-11T00:59:28;95734.56;;;-4.48;77.97
7918;BME280;4004;42.624;23.386;2023-02-11T01:01:55;95739.38;;;-4.45;77.84
7918;BME280;4004;42.624;23.386;2023-02-11T01:04:21;95738.16;;;-4.42;77.54
7918;BME280;4004;42.624;23.386;2023-02-11T01:06:49;95736.03;;;-4.52;77.95
7918;BME280;4004;42.624;23.386;2023-02-11T01:09:16;95744.28;;;-4.48;77.94
7918;BME280;4004;42.624;23.386;2023-02-11T01:11:45;95731.00;;;-4.53;77.96
7918;BME280;4004;42.624;23.386;2023-02-11T01:14:12;95735.59;;;-4.67;78.89
7918;BME280;4004;42.624;23.386;2023-02-11T01:16:38;95731.97;;;-4.66;79.06
7918;BME280;4004;42.624;23.386;2023-02-11T01:19:05;95726.94;;;-4.68;79.78
7918;BME280;4004;42.624;23.386;2023-02-11T01:21:32;95724.75;;;-4.71;79.36
7918;BME280;4004;42.624;23.386;2023-02-11T01:24:00;95729.75;;;-4.69;79.51
7918;BME280;4004;42.624;23.386;2023-02-11T01:26:27;95726.47;;;-4.65;79.17
7918;BME280;4004;42.624;23.386;2023-02-11T01:28:54;95726.94;;;-4.68;79.11
7918;BME280;4004;42.624;23.386;2023-02-11T01:31:21;95719.56;;;-4.59;78.39
7918;BME280;4004;42.624;23.386;2023-02-11T01:33:48;95726.34;;;-4.70;78.28
7918;BME280;4004;42.624;23.386;2023-02-11T01:36:14;95727.44;;;-4.77;78.40
7918;BME280;4004;42.624;23.386;2023-02-11T01:38:41;95727.66;;;-4.79;77.90
7918;BME280;4004;42.624;23.386;2023-02-11T01:41:12;95729.84;;;-4.94;78.35
7918;BME280;4004;42.624;23.386;2023-02-11T01:43:41;95718.09;;;-4.92;78.33
7918;BME280;4004;42.624;23.386;2023-02-11T01:46:28;95725.38;;;-4.94;78.89
7918;BME280;4004;42.624;23.386;2023-02-11T01:49:00;95720.22;;;-5.01;78.52
7918;BME280;4004;42.624;23.386;2023-02-11T01:51:32;95723.00;;;-4.95;78.68
7918;BME280;4004;42.624;23.386;2023-02-11T01:54:03;95720.53;;;-4.90;77.77
7918;BME280;4004;42.624;23.386;2023-02-11T01:56:51;95726.34;;;-4.88;76.66
7918;BME280;4004;42.624;23.386;2023-02-11T01:59:39;95722.63;;;-4.99;75.87
7918;BME280;4004;42.624;23.386;2023-02-11T02:02:10;95715.63;;;-5.05;76.83
7918;BME280;4004;42.624;23.386;2023-02-11T02:04:42;95717.16;;;-4.97;76.77
7918;BME280;4004;42.624;23.386;2023-02-11T02:07:16;95715.69;;;-5.12;75.97
7918;BME280;4004;42.624;23.386;2023-02-11T02:09:50;95716.28;;;-5.10;75.64
7918;BME280;4004;42.624;23.386;2023-02-11T02:12:22;95708.41;;;-5.10;75.24
7918;BME280;4004;42.624;23.386;2023-02-11T02:14:48;95718.88;;;-5.28;75.67
7918;BME280;4004;42.624;23.386;2023-02-11T02:17:25;95717.91;;;-5.34;75.89
7918;BME280;4004;42.624;23.386;2023-02-11T02:20:40;95721.72;;;-5.30;77.15
7918;BME280;4004;42.624;23.386;2023-02-11T02:23:23;95725.72;;;-5.27;77.25
7918;BME280;4004;42.624;23.386;2023-02-11T02:26:37;95718.09;;;-5.29;76.83
7918;BME280;4004;42.624;23.386;2023-02-11T02:29:22;95713.63;;;-5.28;76.40
7918;BME280;4004;42.624;23.386;2023-02-11T02:32:26;95715.19;;;-5.46;76.45
7918;BME280;4004;42.624;23.386;2023-02-11T02:34:57;95713.88;;;-5.55;77.89
7918;BME280;4004;42.624;23.386;2023-02-11T02:37:31;95720.34;;;-5.57;77.83
7918;BME280;4004;42.624;23.386;2023-02-11T02:40:03;95715.50;;;-5.60;77.53
7918;BME280;4004;42.624;23.386;2023-02-11T02:42:31;95720.28;;;-5.51;77.74
7918;BME280;4004;42.624;23.386;2023-02-11T02:44:58;95717.13;;;-5.59;77.97
7918;BME280;4004;42.624;23.386;2023-02-11T02:47:26;95710.28;;;-5.60;77.69
7918;BME280;4004;42.624;23.386;2023-02-11T02:49:53;95714.31;;;-5.58;77.62
7918;BME280;4004;42.624;23.386;2023-02-11T02:52:28;95716.09;;;-5.58;77.14
7918;BME280;4004;42.624;23.386;2023-02-11T02:55:13;95722.03;;;-5.70;77.29
7918;BME280;4004;42.624;23.386;2023-02-11T02:57:55;95718.03;;;-5.72;76.66
7918;BME280;4004;42.624;23.386;2023-02-11T03:00:31;95720.91;;;-5.80;77.20
7918;BME280;4004;42.624;23.386;2023-02-11T03:03:16;95722.19;;;-5.90;77.54
7918;BME280;4004;42.624;23.386;2023-02-11T03:05:49;95722.19;;;-5.90;78.03
7918;BME280;4004;42.624;23.386;2023-02-11T03:08:24;95734.34;;;-5.95;78.35
7918;BME280;4004;42.624;23.386;2023-02-11T03:10:55;95718.06;;;-5.97;78.53
7918;BME280;4004;42.624;23.386;2023-02-11T03:13:26;95723.69;;;-6.00;79.22
7918;BME280;4004;42.624;23.386;2023-02-11T03:15:58;95721.81;;;-5.93;79.17
7918;BME280;4004;42.624;23.386;2023-02-11T03:18:30;95723.22;;;-5.91;79.25
7918;BME280;4004;42.624;23.386;2023-02-11T03:20:58;95731.16;;;-5.97;79.58
7918;BME280;4004;42.624;23.386;2023-02-11T03:23:29;95728.00;;;-5.88;79.87
7918;BME280;4004;42.624;23.386;2023-02-11T03:26:04;95714.06;;;-5.81;79.91
7918;BME280;4004;42.624;23.386;2023-02-11T03:28:37;95717.84;;;-5.71;79.96
7918;BME280;4004;42.624;23.386;2023-02-11T03:31:11;95718.03;;;-5.72;79.67
7918;BME280;4004;42.624;23.386;2023-02-11T03:33:47;95715.03;;;-5.76;79.39
7918;BME280;4004;42.624;23.386;2023-02-11T03:36:20;95710.88;;;-5.84;79.51
7918;BME280;4004;42.624;23.386;2023-02-11T03:38:52;95708.25;;;-5.84;80.04
7918;BME280;4004;42.624;23.386;2023-02-11T03:41:22;95721.94;;;-5.81;80.46
7918;BME280;4004;42.624;23.386;2023-02-11T03:43:51;95716.50;;;-5.80;79.24
7918;BME280;4004;42.624;23.386;2023-02-11T03:46:23;95714.19;;;-5.95;78.60
7918;BME280;4004;42.624;23.386;2023-02-11T03:48:56;95718.28;;;-6.06;79.14
7918;BME280;4004;42.624;23.386;2023-02-11T03:51:26;95725.41;;;-6.13;79.34
7918;BME280;4004;42.624;23.386;2023-02-11T03:53:57;95718.56;;;-6.20;79.66
7918;BME280;4004;42.624;23.386;2023-02-11T03:56:29;95702.66;;;-6.19;80.05
7918;BME280;4004;42.624;23.386;2023-02-11T03:58:57;95705.16;;;-6.31;80.49
7918;BME280;4004;42.624;23.386;2023-02-11T04:01:24;95708.53;;;-6.23;80.71
7918;BME280;4004;42.624;23.386;2023-02-11T04:03:50;95706.78;;;-6.36;80.45
7918;BME280;4004;42.624;23.386;2023-02-11T04:06:18;95712.25;;;-6.38;81.05
7918;BME280;4004;42.624;23.386;2023-02-11T04:08:45;95708.41;;;-6.35;81.80
7918;BME280;4004;42.624;23.386;2023-02-11T04:11:12;95715.00;;;-6.26;82.86
7918;BME280;4004;42.624;23.386;2023-02-11T04:13:39;95718.81;;;-6.22;82.01
7918;BME280;4004;42.624;23.386;2023-02-11T04:16:06;95708.59;;;-6.30;82.00
7918;BME280;4004;42.624;23.386;2023-02-11T04:18:32;95714.56;;;-6.23;81.95
7918;BME280;4004;42.624;23.386;2023-02-11T04:20:59;95713.31;;;-6.14;81.76
7918;BME280;4004;42.624;23.386;2023-02-11T04:23:27;95721.56;;;-6.10;80.62
7918;BME280;4004;42.624;23.386;2023-02-11T04:25:54;95714.72;;;-6.11;81.02
7918;BME280;4004;42.624;23.386;2023-02-11T04:28:21;95711.91;;;-6.16;81.18
7918;BME280;4004;42.624;23.386;2023-02-11T04:30:48;95700.50;;;-6.22;80.89
7918;BME280;4004;42.624;23.386;2023-02-11T04:33:15;95707.13;;;-6.19;81.59
7918;BME280;4004;42.624;23.386;2023-02-11T04:35:41;95708.03;;;-6.07;81.32
7918;BME280;4004;42.624;23.386;2023-02-11T04:38:08;95708.47;;;-6.10;80.40
7918;BME280;4004;42.624;23.386;2023-02-11T04:40:36;95699.63;;;-6.16;79.66
7918;BME280;4004;42.624;23.386;2023-02-11T04:43:03;95703.91;;;-6.21;79.04
7918;BME280;4004;42.624;23.386;2023-02-11T04:45:30;95696.69;;;-6.26;79.08
7918;BME280;4004;42.624;23.386;2023-02-11T04:47:57;95703.19;;;-6.35;79.68
7918;BME280;4004;42.624;23.386;2023-02-11T04:50:24;95703.63;;;-6.45;79.75
7918;BME280;4004;42.624;23.386;2023-02-11T04:52:50;95701.00;;;-6.45;79.86
7918;BME280;4004;42.624;23.386;2023-02-11T04:55:17;95697.97;;;-6.42;79.13
7918;BME280;4004;42.624;23.386;2023-02-11T04:57:45;95703.97;;;-6.35;78.50
7918;BME280;4004;42.624;23.386;2023-02-11T05:00:13;95698.19;;;-6.43;78.63
7918;BME280;4004;42.624;23.386;2023-02-11T05:02:40;95698.38;;;-6.45;78.85
7918;BME280;4004;42.624;23.386;2023-02-11T05:05:07;95700.94;;;-6.32;79.23
7918;BME280;4004;42.624;23.386;2023-02-11T05:07:33;95689.63;;;-6.26;78.92
7918;BME280;4004;42.624;23.386;2023-02-11T05:10:00;95692.63;;;-6.22;79.22
7918;BME280;4004;42.624;23.386;2023-02-11T05:12:27;95695.28;;;-6.29;79.42
7918;BME280;4004;42.624;23.386;2023-02-11T05:14:55;95695.94;;;-6.33;79.28
7918;BME280;4004;42.624;23.386;2023-02-11T05:17:22;95691.72;;;-6.41;79.43
7918;BME280;4004;42.624;23.386;2023-02-11T05:19:48;95684.06;;;-6.42;79.41
7918;BME280;4004;42.624;23.386;2023-02-11T05:22:15;95689.94;;;-6.47;79.17
7918;BME280;4004;42.624;23.386;2023-02-11T05:24:42;95685.53;;;-6.47;79.26
7918;BME280;4004;42.624;23.386;2023-02-11T05:27:08;95679.47;;;-6.47;78.95
7918;BME280;4004;42.624;23.386;2023-02-11T05:29:35;95683.94;;;-6.54;79.20
7918;BME280;4004;42.624;23.386;2023-02-11T05:32:04;95688.78;;;-6.51;78.65
7918;BME280;4004;42.624;23.386;2023-02-11T05:36:58;95692.19;;;-6.51;79.36
7918;BME280;4004;42.624;23.386;2023-02-11T05:39:24;95686.16;;;-6.51;79.61
7918;BME280;4004;42.624;23.386;2023-02-11T05:41:51;95687.75;;;-6.50;79.52
7918;BME280;4004;42.624;23.386;2023-02-11T05:44:18;95683.13;;;-6.48;79.30
7918;BME280;4004;42.624;23.386;2023-02-11T05:46:45;95684.63;;;-6.34;79.42
7918;BME280;4004;42.624;23.386;2023-02-11T05:49:13;95696.59;;;-6.13;79.99
7918;BME280;4004;42.624;23.386;2023-02-11T05:51:39;95695.41;;;-5.92;78.63
7918;BME280;4004;42.624;23.386;2023-02-11T05:54:06;95694.25;;;-5.71;77.35
7918;BME280;4004;42.624;23.386;2023-02-11T05:56:33;95688.19;;;-5.46;76.09
7918;BME280;4004;42.624;23.386;2023-02-11T05:58:59;95690.50;;;-5.13;75.23
7918;BME280;4004;42.624;23.386;2023-02-11T06:01:26;95689.09;;;-4.79;73.54
7918;BME280;4004;42.624;23.386;2023-02-11T06:03:53;95692.28;;;-4.40;72.43
7918;BME280;4004;42.624;23.386;2023-02-11T06:06:21;95693.06;;;-4.09;71.91
7918;BME280;4004;42.624;23.386;2023-02-11T06:08:48;95701.16;;;-3.68;70.61
7918;BME280;4004;42.624;23.386;2023-02-11T06:11:15;95700.38;;;-3.34;67.69
7918;BME280;4004;42.624;23.386;2023-02-11T06:13:42;95704.94;;;-3.05;64.33
7918;BME280;4004;42.624;23.386;2023-02-11T06:16:09;95704.56;;;-2.85;60.94
7918;BME280;4004;42.624;23.386;2023-02-11T06:18:36;95702.00;;;-2.57;57.80
7918;BME280;4004;42.624;23.386;2023-02-11T06:21:05;95707.06;;;-2.67;57.02
7918;BME280;4004;42.624;23.386;2023-02-11T06:23:33;95709.16;;;-2.40;56.42
7918;BME280;4004;42.624;23.386;2023-02-11T06:26:01;95704.53;;;-2.21;55.66
7918;BME280;4004;42.624;23.386;2023-02-11T06:28:28;95712.13;;;-1.79;55.47
7918;BME280;4004;42.624;23.386;2023-02-11T06:30:55;95699.34;;;-1.37;54.56
7918;BME280;4004;42.624;23.386;2023-02-11T06:33:22;95704.22;;;-1.12;53.56
7918;BME280;4004;42.624;23.386;2023-02-11T06:35:49;95711.59;;;-0.75;52.52
7918;BME280;4004;42.624;23.386;2023-02-11T06:38:16;95711.84;;;-0.32;52.16
7918;BME280;4004;42.624;23.386;2023-02-11T06:40:47;95706.13;;;-0.24;51.15
7918;BME280;4004;42.624;23.386;2023-02-11T06:43:14;95707.53;;;-0.16;51.65
7918;BME280;4004;42.624;23.386;2023-02-11T06:45:41;95707.31;;;-0.10;51.16
7918;BME280;4004;42.624;23.386;2023-02-11T06:48:08;95707.81;;;-0.40;50.43
7918;BME280;4004;42.624;23.386;2023-02-11T06:50:34;95709.81;;;0.02;50.56
7918;BME280;4004;42.624;23.386;2023-02-11T06:53:01;95713.69;;;0.49;50.10
7918;BME280;4004;42.624;23.386;2023-02-11T06:55:28;95720.84;;;0.80;49.03
7918;BME280;4004;42.624;23.386;2023-02-11T06:57:56;95710.31;;;0.91;47.35
7918;BME280;4004;42.624;23.386;2023-02-11T07:00:22;95721.72;;;0.91;47.28
7918;BME280;4004;42.624;23.386;2023-02-11T07:02:49;95716.41;;;1.34;47.08
7918;BME280;4004;42.624;23.386;2023-02-11T07:05:16;95726.41;;;1.74;47.22
7918;BME280;4004;42.624;23.386;2023-02-11T07:07:43;95721.16;;;1.90;46.71
7918;BME280;4004;42.624;23.386;2023-02-11T07:10:09;95714.31;;;2.09;46.57
7918;BME280;4004;42.624;23.386;2023-02-11T07:12:36;95719.38;;;2.16;46.14
7918;BME280;4004;42.624;23.386;2023-02-11T07:15:05;95717.81;;;2.45;45.73
7918;BME280;4004;42.624;23.386;2023-02-11T07:17:33;95723.94;;;2.56;45.41
7918;BME280;4004;42.624;23.386;2023-02-11T07:19:59;95718.88;;;2.60;45.03
7918;BME280;4004;42.624;23.386;2023-02-11T07:22:26;95715.44;;;2.44;44.81
7918;BME280;4004;42.624;23.386;2023-02-11T07:24:53;95702.69;;;2.51;45.99
7918;BME280;4004;42.624;23.386;2023-02-11T07:27:19;95698.44;;;2.76;45.46
7918;BME280;4004;42.624;23.386;2023-02-11T07:29:46;95704.28;;;2.78;45.23
7918;BME280;4004;42.624;23.386;2023-02-11T07:32:14;95703.47;;;3.18;45.08
7918;BME280;4004;42.624;23.386;2023-02-11T07:34:41;95699.09;;;3.58;44.62
7918;BME280;4004;42.624;23.386;2023-02-11T07:37:08;95696.63;;;3.77;43.54
7918;BME280;4004;42.624;23.386;2023-02-11T07:39:35;95688.88;;;3.86;43.73
7918;BME280;4004;42.624;23.386;2023-02-11T07:42:02;95689.91;;;3.90;43.47
7918;BME280;4004;42.624;23.386;2023-02-11T07:44:29;95685.09;;;3.97;44.05
7918;BME280;4004;42.624;23.386;2023-02-11T07:46:57;95678.78;;;3.83;43.75
7918;BME280;4004;42.624;23.386;2023-02-11T07:49:25;95685.53;;;4.14;43.48
7918;BME280;4004;42.624;23.386;2023-02-11T07:51:52;95688.56;;;4.37;43.85
7918;BME280;4004;42.624;23.386;2023-02-11T07:54:19;95680.94;;;4.65;43.16
7918;BME280;4004;42.624;23.386;2023-02-11T07:56:46;95689.34;;;4.77;42.63
7918;BME280;4004;42.624;23.386;2023-02-11T07:59:13;95672.63;;;4.66;43.27
7918;BME280;4004;42.624;23.386;2023-02-11T08:01:39;95674.94;;;4.44;42.02
7918;BME280;4004;42.624;23.386;2023-02-11T08:04:06;95680.06;;;4.35;42.75
7918;BME280;4004;42.624;23.386;2023-02-11T08:06:38;95680.00;;;4.45;42.45
7918;BME280;4004;42.624;23.386;2023-02-11T08:09:06;95680.84;;;4.41;42.54
7918;BME280;4004;42.624;23.386;2023-02-11T08:11:34;95675.25;;;4.37;42.66
7918;BME280;4004;42.624;23.386;2023-02-11T08:14:01;95668.72;;;4.19;42.67
7918;BME280;4004;42.624;23.386;2023-02-11T08:16:29;95666.09;;;4.14;42.15
7918;BME280;4004;42.624;23.386;2023-02-11T08:18:58;95669.69;;;4.33;42.90
7918;BME280;4004;42.624;23.386;2023-02-11T08:21:25;95663.34;;;4.24;42.50
7918;BME280;4004;42.624;23.386;2023-02-11T08:23:54;95660.69;;;4.29;42.38
7918;BME280;4004;42.624;23.386;2023-02-11T08:26:22;95670.34;;;4.15;42.03
7918;BME280;4004;42.624;23.386;2023-02-11T08:28:50;95668.56;;;4.00;42.21
7918;BME280;4004;42.624;23.386;2023-02-11T08:31:19;95675.00;;;3.89;42.27
7918;BME280;4004;42.624;23.386;2023-02-11T08:33:46;95672.28;;;3.99;42.55
7918;BME280;4004;42.624;23.386;2023-02-11T08:36:15;95668.53;;;4.05;43.03
7918;BME280;4004;42.624;23.386;2023-02-11T08:38:42;95675.59;;;3.76;42.50
7918;BME280;4004;42.624;23.386;2023-02-11T08:41:11;95671.63;;;3.73;43.05
7918;BME280;4004;42.624;23.386;2023-02-11T08:43:39;95667.47;;;3.51;43.24
7918;BME280;4004;42.624;23.386;2023-02-11T08:46:07;95671.53;;;3.28;43.01
7918;BME280;4004;42.624;23.386;2023-02-11T08:48:34;95670.31;;;2.49;44.68
7918;BME280;4004;42.624;23.386;2023-02-11T08:51:05;95669.75;;;2.26;45.69
7918;BME280;4004;42.624;23.386;2023-02-11T08:53:32;95674.78;;;2.07;46.42
7918;BME280;4004;42.624;23.386;2023-02-11T08:55:59;95673.47;;;2.10;46.12
7918;BME280;4004;42.624;23.386;2023-02-11T08:58:27;95671.63;;;2.16;46.46
7918;BME280;4004;42.624;23.386;2023-02-11T09:00:54;95677.91;;;1.84;45.81
7918;BME280;4004;42.624;23.386;2023-02-11T09:03:20;95677.34;;;1.72;47.35
7918;BME280;4004;42.624;23.386;2023-02-11T09:05:48;95663.06;;;1.83;47.07
7918;BME280;4004;42.624;23.386;2023-02-11T09:08:18;95666.75;;;1.77;46.50
7918;BME280;4004;42.624;23.386;2023-02-11T09:10:45;95657.97;;;1.66;47.36
7918;BME280;4004;42.624;23.386;2023-02-11T09:13:12;95667.22;;;1.58;47.54
7918;BME280;4004;42.624;23.386;2023-02-11T09:15:44;95677.63;;;1.80;47.58
7918;BME280;4004;42.624;23.386;2023-02-11T09:18:11;95652.69;;;1.81;47.29
7918;BME280;4004;42.624;23.386;2023-02-11T09:20:37;95651.13;;;1.91;47.85
7918;BME280;4004;42.624;23.386;2023-02-11T09:23:04;95657.75;;;1.93;47.87
7918;BME280;4004;42.624;23.386;2023-02-11T09:25:31;95657.22;;;1.86;48.00
7918;BME280;4004;42.624;23.386;2023-02-11T09:27:58;95655.09;;;1.83;48.44
7918;BME280;4004;42.624;23.386;2023-02-11T09:30:24;95651.41;;;1.89;48.63
7918;BME280;4004;42.624;23.386;2023-02-11T09:32:52;95649.78;;;1.78;48.83
7918;BME280;4004;42.624;23.386;2023-02-11T09:35:19;95650.84;;;1.72;48.63
7918;BME280;4004;42.624;23.386;2023-02-11T09:37:46;95644.22;;;1.84;48.61
7918;BME280;4004;42.624;23.386;2023-02-11T09:40:13;95649.31;;;1.96;48.18
7918;BME280;4004;42.624;23.386;2023-02-11T09:42:45;95640.53;;;1.91;48.28
7918;BME280;4004;42.624;23.386;2023-02-11T09:45:17;95634.16;;;1.92;48.77
7918;BME280;4004;42.624;23.386;2023-02-11T09:47:48;95630.41;;;1.77;48.77
7918;BME280;4004;42.624;23.386;2023-02-11T09:50:21;95624.31;;;1.82;48.54
7918;BME280;4004;42.624;23.386;2023-02-11T09:52:54;95624.06;;;1.89;48.75
7918;BME280;4004;42.624;23.386;2023-02-11T09:55:26;95619.06;;;1.87;48.20
7918;BME280;4004;42.624;23.386;2023-02-11T09:57:54;95605.78;;;1.87;48.49
7918;BME280;4004;42.624;23.386;2023-02-11T10:00:23;95599.94;;;1.90;48.21
7918;BME280;4004;42.624;23.386;2023-02-11T10:03:06;95599.38;;;1.73;48.15
7918;BME280;4004;42.624;23.386;2023-02-11T10:05:56;95593.81;;;1.74;48.73
7918;BME280;4004;42.624;23.386;2023-02-11T10:08:33;95594.88;;;1.63;48.40
7918;BME280;4004;42.624;23.386;2023-02-11T10:11:06;95585.09;;;1.74;48.00
7918;BME280;4004;42.624;23.386;2023-02-11T10:13:45;95582.94;;;1.71;48.59
7918;BME280;4004;42.624;23.386;2023-02-11T10:16:28;95580.56;;;1.69;48.48
7918;BME280;4004;42.624;23.386;2023-02-11T10:19:10;95577.34;;;1.62;48.25
7918;BME280;4004;42.624;23.386;2023-02-11T10:21:47;95574.97;;;1.65;48.69
7918;BME280;4004;42.624;23.386;2023-02-11T10:24:17;95563.03;;;1.58;48.70
7918;BME280;4004;42.624;23.386;2023-02-11T10:26:45;95552.69;;;1.51;48.92
7918;BME280;4004;42.624;23.386;2023-02-11T10:29:28;95542.63;;;1.53;48.48
7918;BME280;4004;42.624;23.386;2023-02-11T10:31:58;95548.97;;;1.47;48.86
7918;BME280;4004;42.624;23.386;2023-02-11T10:34:26;95534.94;;;1.57;49.12
7918;BME280;4004;42.624;23.386;2023-02-11T10:36:54;95525.94;;;1.68;48.73
7918;BME280;4004;42.624;23.386;2023-02-11T10:39:24;95514.00;;;1.65;48.82
7918;BME280;4004;42.624;23.386;2023-02-11T10:41:54;95510.53;;;1.55;49.03
7918;BME280;4004;42.624;23.386;2023-02-11T10:44:25;95497.03;;;1.61;49.06
7918;BME280;4004;42.624;23.386;2023-02-11T10:46:53;95498.91;;;1.56;48.80
7918;BME280;4004;42.624;23.386;2023-02-11T10:49:33;95494.66;;;1.50;48.70
7918;BME280;4004;42.624;23.386;2023-02-11T10:52:14;95485.66;;;1.56;48.95
7918;BME280;4004;42.624;23.386;2023-02-11T10:54:41;95490.13;;;1.50;48.02
7918;BME280;4004;42.624;23.386;2023-02-11T10:57:17;95478.47;;;1.51;48.04
7918;BME280;4004;42.624;23.386;2023-02-11T10:59:45;95475.31;;;1.49;47.65
7918;BME280;4004;42.624;23.386;2023-02-11T11:02:21;95476.09;;;1.50;47.28
7918;BME280;4004;42.624;23.386;2023-02-11T11:04:48;95472.66;;;1.59;47.81
7918;BME280;4004;42.624;23.386;2023-02-11T11:07:25;95468.94;;;1.50;46.02
7918;BME280;4004;42.624;23.386;2023-02-11T11:09:53;95467.06;;;1.51;45.70
7918;BME280;4004;42.624;23.386;2023-02-11T11:12:26;95460.44;;;1.48;46.15
7918;BME280;4004;42.624;23.386;2023-02-11T11:14:54;95465.22;;;1.61;46.05
7918;BME280;4004;42.624;23.386;2023-02-11T11:17:21;95467.63;;;1.63;46.31
7918;BME280;4004;42.624;23.386;2023-02-11T11:19:48;95462.03;;;1.59;46.59
7918;BME280;4004;42.624;23.386;2023-02-11T11:22:20;95450.91;;;1.73;45.85
7918;BME280;4004;42.624;23.386;2023-02-11T11:24:49;95453.56;;;1.68;46.69
7918;BME280;4004;42.624;23.386;2023-02-11T11:27:21;95447.47;;;1.67;45.87
7918;BME280;4004;42.624;23.386;2023-02-11T11:29:50;95455.41;;;1.72;46.03
7918;BME280;4004;42.624;23.386;2023-02-11T11:32:21;95446.66;;;1.77;45.70
7918;BME280;4004;42.624;23.386;2023-02-11T11:34:51;95451.16;;;1.81;46.28
7918;BME280;4004;42.624;23.386;2023-02-11T11:37:22;95445.88;;;1.81;45.56
7918;BME280;4004;42.624;23.386;2023-02-11T11:39:56;95447.19;;;1.84;45.33
7918;BME280;4004;42.624;23.386;2023-02-11T11:42:25;95446.66;;;1.92;45.65
7918;BME280;4004;42.624;23.386;2023-02-11T11:44:57;95438.16;;;1.95;45.30
7918;BME280;4004;42.624;23.386;2023-02-11T11:47:27;95438.44;;;1.94;45.73
7918;BME280;4004;42.624;23.386;2023-02-11T11:50:19;95428.06;;;1.97;45.67
7918;BME280;4004;42.624;23.386;2023-02-11T11:52:55;95433.09;;;2.09;45.50
7918;BME280;4004;42.624;23.386;2023-02-11T11:55:32;95428.81;;;2.13;45.66
7918;BME280;4004;42.624;23.386;2023-02-11T11:58:00;95426.69;;;2.15;46.43
7918;BME280;4004;42.624;23.386;2023-02-11T12:00:32;95417.41;;;2.23;46.09
7918;BME280;4004;42.624;23.386;2023-02-11T12:03:16;95412.63;;;2.20;45.68
7918;BME280;4004;42.624;23.386;2023-02-11T12:05:56;95405.97;;;2.33;45.08
7918;BME280;4004;42.624;23.386;2023-02-11T12:08:35;95401.47;;;2.28;45.36
7918;BME280;4004;42.624;23.386;2023-02-11T12:11:13;95397.75;;;2.29;46.08
7918;BME280;4004;42.624;23.386;2023-02-11T12:13:59;95396.41;;;2.37;44.96
7918;BME280;4004;42.624;23.386;2023-02-11T12:16:35;95395.88;;;2.35;46.02
7918;BME280;4004;42.624;23.386;2023-02-11T12:19:21;95392.38;;;2.44;45.64
7918;BME280;4004;42.624;23.386;2023-02-11T12:22:00;95382.31;;;2.41;45.46
7918;BME280;4004;42.624;23.386;2023-02-11T12:24:47;95386.47;;;2.58;44.75
7918;BME280;4004;42.624;23.386;2023-02-11T12:27:25;95376.16;;;2.56;45.13
7918;BME280;4004;42.624;23.386;2023-02-11T12:30:03;95383.25;;;2.66;45.39
7918;BME280;4004;42.624;23.386;2023-02-11T12:32:46;95365.50;;;2.61;45.34
7918;BME280;4004;42.624;23.386;2023-02-11T12:35:20;95359.91;;;2.63;45.00
7918;BME280;4004;42.624;23.386;2023-02-11T12:38:12;95358.84;;;2.64;45.23
7918;BME280;4004;42.624;23.386;2023-02-11T12:40:45;95357.78;;;2.60;45.34
7918;BME280;4004;42.624;23.386;2023-02-11T12:43:22;95348.72;;;2.66;45.41
7918;BME280;4004;42.624;23.386;2023-02-11T12:45:59;95358.00;;;2.74;45.48
7918;BME280;4004;42.624;23.386;2023-02-11T12:48:39;95355.94;;;2.60;44.81
7918;BME280;4004;42.624;23.386;2023-02-11T12:51:21;95354.31;;;2.69;44.77
7918;BME280;4004;42.624;23.386;2023-02-11T12:54:09;95346.56;;;2.78;44.70
7918;BME280;4004;42.624;23.386;2023-02-11T12:56:42;95347.78;;;2.91;44.34
7918;BME280;4004;42.624;23.386;2023-02-11T12:59:16;95343.03;;;2.88;44.31
7918;BME280;4004;42.624;23.386;2023-02-11T13:01:50;95338.50;;;2.88;44.10
7918;BME280;4004;42.624;23.386;2023-02-11T13:04:24;95336.56;;;2.99;43.68
7918;BME280;4004;42.624;23.386;2023-02-11T13:06:58;95333.44;;;2.92;42.89
7918;BME280;4004;42.624;23.386;2023-02-11T13:09:31;95334.22;;;2.93;42.82
7918;BME280;4004;42.624;23.386;2023-02-11T13:12:02;95330.50;;;2.94;41.87
7918;BME280;4004;42.624;23.386;2023-02-11T13:14:55;95322.56;;;2.88;42.19
7918;BME280;4004;42.624;23.386;2023-02-11T13:17:29;95322.03;;;2.86;42.55
7918;BME280;4004;42.624;23.386;2023-02-11T13:20:04;95319.31;;;2.97;43.07
7918;BME280;4004;42.624;23.386;2023-02-11T13:22:38;95323.81;;;3.01;42.78
7918;BME280;4004;42.624;23.386;2023-02-11T13:25:19;95324.59;;;3.02;42.60
7918;BME280;4004;42.624;23.386;2023-02-11T13:27:54;95324.06;;;3.00;42.49
7918;BME280;4004;42.624;23.386;2023-02-11T13:30:26;95319.78;;;3.04;42.15
7918;BME280;4004;42.624;23.386;2023-02-11T13:33:13;95316.88;;;3.05;42.03
7918;BME280;4004;42.624;23.386;2023-02-11T13:35:44;95318.44;;;3.06;41.63
7918;BME280;4004;42.624;23.386;2023-02-11T13:38:18;95318.69;;;3.10;41.51